Mount Tabor, Vermont
Current Conditions -  °F | °C
As of 3:55 PM on Friday 19 Dec 2014 (Local Time) from KRUT Reporting Station
Overcast Overcast  
Wind Chill: 17°   Ceiling: 2300
Heat Index: 27°   Visibility: 10mi
Dew Point: 18°   Wind: 9mph
Humidity: 69%   Direction: 320°NW
Pressure: 30.05"   Gusts: NA
Location:  43.3492°N, 72.9643°W
Report Text: KRUT 192055Z 32008KT 10SM OVC023 M03/M08 A3005 RMK AO1 52014
Loading
Personal Weather Stations






























Interactive Weather Map New forecast layout! Learn more

10-Day Weather Forecast

Advertisements
Track Severe Weather on mobile